American Integrity — WDD2875 — position and weather

sailwx.info

Track history (hours):
 
Tides and Currents Weather Stations Pressure Air Temp Water Temp Dewpoint Dewpoint Depression Visibility Wind Speed Wind Dir Waves Ship Positions

American Integrity

Owner: American Steamship Company, Williamsville, NY. More information available from US FCC via Universal Licensing System and Coast Guard Vessel Documentation Center.

Last reported at 2017-Jan-16 07:00 UTC. Time now 2017-Mar-31 00:22 UTC.
Position N 41°54' W 081°00'.
Warning: this ship's position is months out of date.

; draft 8 m.

Type: Cargo ship. MMSI: 367120990.

Wind from 180 at 6 knots

Barometer 1025.7 mb
Air temperature -0.0 ° C
Visibility: greater than 10.8 NM

Date/timePositionNaut miles runAvg speedWind from/ knotsBaromVisibWave heightAir tempDewpointWater temp
2017-Jan-16 07:00N 41°54' W 081°00'31213.6 180 / 61025.710.8 -0.0
2017-Jan-15 08:00N 44°00' W 087°30'195 7.8 330 / 121026.010.8 -2.7
2017-Jan-14 07:00N 46°54' W 085°24'13911.6 220 / 241031.110.8 -9.4
2017-Jan-13 19:00N 47°30' W 088°42'12012.3 250 / 71035.5 2.2 -10.5
2017-Jan-13 09:16N 47°02' W 091°34'4 6.2
2017-Jan-13 08:33N 47°01' W 091°40'0 0.1
2017-Jan-13 07:14N 47°01' W 091°40'0 0.0
2017-Jan-13 00:09N 47°01' W 091°40'0 0.0
2017-Jan-12 12:20N 47°01' W 091°40'0 0.0
2017-Jan-12 11:33N 47°01' W 091°40'0 0.0
2017-Jan-12 10:33N 47°01' W 091°40'0 0.0
2017-Jan-12 09:33N 47°01' W 091°40'0 0.0
2017-Jan-12 08:31N 47°01' W 091°40'0 0.0
2017-Jan-12 07:34N 47°01' W 091°40'0 0.0
2017-Jan-11 21:04N 47°01' W 091°40'3 4.9
2017-Jan-11 20:32N 46°58' W 091°41'8 8.4
2017-Jan-11 19:33N 46°52' W 091°49'4 6.9
2017-Jan-11 19:00N 46°48' W 091°48'715.2 320 / 131010.810.8 -14.4
2017-Jan-11 18:33N 46°47' W 091°58'2 1.8
2017-Jan-11 17:30N 46°45' W 091°58'0 0.0
2017-Jan-11 16:33N 46°45' W 091°58'0 0.0
2017-Jan-11 15:33N 46°45' W 091°58'0 0.0
2017-Jan-11 14:33N 46°45' W 091°58'0 0.0
2017-Jan-11 13:33N 46°45' W 091°58'0 0.1
2017-Jan-11 12:33N 46°45' W 091°58'0 0.0
2017-Jan-11 11:33N 46°45' W 091°58'0 0.0
2017-Jan-11 10:33N 46°45' W 091°58'0 0.0
2017-Jan-11 09:33N 46°45' W 091°58'0 0.0
2017-Jan-11 08:33N 46°45' W 091°58'0 0.0
2017-Jan-11 07:33N 46°45' W 091°58'0 0.0
2017-Jan-11 06:33N 46°45' W 091°58'0 0.0
2017-Jan-11 05:33N 46°45' W 091°58'0 0.0
2017-Jan-11 04:33N 46°45' W 091°58'0 0.0
2017-Jan-11 03:33N 46°45' W 091°58'0 0.0
2017-Jan-11 02:33N 46°45' W 091°58'0 0.0
2017-Jan-11 01:33N 46°45' W 091°58'0 0.0
2017-Jan-11 00:33N 46°45' W 091°58'0 0.0
2017-Jan-10 23:33N 46°45' W 091°58'0 0.0
2017-Jan-10 22:33N 46°45' W 091°58'0 0.0
2017-Jan-10 21:33N 46°45' W 091°58'0 0.1
2017-Jan-10 20:33N 46°45' W 091°58'0 0.0
2017-Jan-10 19:33N 46°45' W 091°58'0 0.0
2017-Jan-10 18:33N 46°45' W 091°58'0 0.1
2017-Jan-10 17:33N 46°45' W 091°58'0 0.1
2017-Jan-10 16:33N 46°45' W 091°58'0 0.2
2017-Jan-10 15:32N 46°45' W 091°58'0 0.2
2017-Jan-10 14:33N 46°45' W 091°58'0 0.0
2017-Jan-10 13:33N 46°45' W 091°58'0 0.1
2017-Jan-10 12:33N 46°45' W 091°58'0 0.0
2017-Jan-10 11:33N 46°45' W 091°58'0 0.1
2017-Jan-10 10:33N 46°45' W 091°58'0 0.1
2017-Jan-10 09:33N 46°45' W 091°58'0 0.1
2017-Jan-10 08:33N 46°45' W 091°58'0 0.0
2017-Jan-10 07:33N 46°45' W 091°58'0 0.0
2017-Jan-10 06:33N 46°45' W 091°58'0 0.0
2017-Jan-10 05:33N 46°45' W 091°58'0 0.0
2017-Jan-10 04:33N 46°45' W 091°58'0 0.1
2017-Jan-10 03:33N 46°45' W 091°58'0 0.0
2017-Jan-10 02:33N 46°45' W 091°58'0 0.0
2017-Jan-10 01:33N 46°45' W 091°58'0 0.0
2017-Jan-10 00:33N 46°45' W 091°58'0 0.0
2017-Jan-09 23:33N 46°45' W 091°58'0 0.0
2017-Jan-09 22:33N 46°45' W 091°58'0 0.0
2017-Jan-09 21:33N 46°45' W 091°58'0 0.0
2017-Jan-09 20:33N 46°45' W 091°58'0 0.0
2017-Jan-09 19:32N 46°45' W 091°58'0 0.0
2017-Jan-09 18:33N 46°45' W 091°58'0 0.2
2017-Jan-09 17:33N 46°45' W 091°58'0 0.2
2017-Jan-09 16:33N 46°45' W 091°58'0 0.2
2017-Jan-09 15:33N 46°45' W 091°58'0 0.1
2017-Jan-09 14:33N 46°45' W 091°58'0 0.0
2017-Jan-09 13:33N 46°45' W 091°58'0 0.1
2017-Jan-09 12:33N 46°45' W 091°58'0 0.1
2017-Jan-09 11:33N 46°45' W 091°58'0 0.1
2017-Jan-09 10:33N 46°45' W 091°58'0 0.1
2017-Jan-09 09:33N 46°45' W 091°58'0 0.0
2017-Jan-09 08:33N 46°45' W 091°58'0 0.0
2017-Jan-09 07:33N 46°45' W 091°58'0 0.1
2017-Jan-09 06:33N 46°45' W 091°58'7 6.8
2017-Jan-09 05:33N 46°49' W 091°50'10 9.6
2017-Jan-09 04:33N 46°53' W 091°37'99 9.4
2017-Jan-08 18:00N 47°48' W 089°36'12911.8 250 / 141027.010.8 -8.8
2017-Jan-08 07:00N 48°24' W 086°30'104 8.0 310 / 151027.4 0.5 -16.1
2017-Jan-07 18:00N 47°00' W 085°00'112 8.6 240 / 231017.2 0.5 -8.3
2017-Jan-07 05:00N 45°30' W 083°24'   280 / 171020.610.8 -8.3
Track history (hours):
 
Tides and Currents Weather Stations Pressure Air Temp Water Temp Dewpoint Dewpoint Depression Visibility Wind Speed Wind Dir Waves Ship Positions

American Integrity

Owner: American Steamship Company, Williamsville, NY. More information available from US FCC via Universal Licensing System and Coast Guard Vessel Documentation Center.

Last reported at 2017-Jan-16 07:00 UTC. Time now 2017-Mar-31 00:22 UTC.
Position N 41°54' W 081°00'.
Warning: this ship's position is months out of date.

; draft 8 m.

Type: Cargo ship. MMSI: 367120990.

Wind from 180 at 6 knots

Barometer 1025.7 mb
Air temperature -0.0 ° C
Visibility: greater than 10.8 NM

Date/timePositionNaut miles runAvg speedWind from/ knotsBaromVisibWave heightAir tempDewpointWater temp
2017-Jan-16 07:00N 41°54' W 081°00'31213.6 180 / 61025.710.8 -0.0
2017-Jan-15 08:00N 44°00' W 087°30'195 7.8 330 / 121026.010.8 -2.7
2017-Jan-14 07:00N 46°54' W 085°24'13911.6 220 / 241031.110.8 -9.4
2017-Jan-13 19:00N 47°30' W 088°42'12012.3 250 / 71035.5 2.2 -10.5
2017-Jan-13 09:16N 47°02' W 091°34'4 6.2
2017-Jan-13 08:33N 47°01' W 091°40'0 0.1
2017-Jan-13 07:14N 47°01' W 091°40'0 0.0
2017-Jan-13 00:09N 47°01' W 091°40'0 0.0
2017-Jan-12 12:20N 47°01' W 091°40'0 0.0
2017-Jan-12 11:33N 47°01' W 091°40'0 0.0
2017-Jan-12 10:33N 47°01' W 091°40'0 0.0
2017-Jan-12 09:33N 47°01' W 091°40'0 0.0
2017-Jan-12 08:31N 47°01' W 091°40'0 0.0
2017-Jan-12 07:34N 47°01' W 091°40'0 0.0
2017-Jan-11 21:04N 47°01' W 091°40'3 4.9
2017-Jan-11 20:32N 46°58' W 091°41'8 8.4
2017-Jan-11 19:33N 46°52' W 091°49'4 6.9
2017-Jan-11 19:00N 46°48' W 091°48'715.2 320 / 131010.810.8 -14.4
2017-Jan-11 18:33N 46°47' W 091°58'2 1.8
2017-Jan-11 17:30N 46°45' W 091°58'0 0.0
2017-Jan-11 16:33N 46°45' W 091°58'0 0.0
2017-Jan-11 15:33N 46°45' W 091°58'0 0.0
2017-Jan-11 14:33N 46°45' W 091°58'0 0.0
2017-Jan-11 13:33N 46°45' W 091°58'0 0.1
2017-Jan-11 12:33N 46°45' W 091°58'0 0.0
2017-Jan-11 11:33N 46°45' W 091°58'0 0.0
2017-Jan-11 10:33N 46°45' W 091°58'0 0.0
2017-Jan-11 09:33N 46°45' W 091°58'0 0.0
2017-Jan-11 08:33N 46°45' W 091°58'0 0.0
2017-Jan-11 07:33N 46°45' W 091°58'0 0.0
2017-Jan-11 06:33N 46°45' W 091°58'0 0.0
2017-Jan-11 05:33N 46°45' W 091°58'0 0.0
2017-Jan-11 04:33N 46°45' W 091°58'0 0.0
2017-Jan-11 03:33N 46°45' W 091°58'0 0.0
2017-Jan-11 02:33N 46°45' W 091°58'0 0.0
2017-Jan-11 01:33N 46°45' W 091°58'0 0.0
2017-Jan-11 00:33N 46°45' W 091°58'0 0.0
2017-Jan-10 23:33N 46°45' W 091°58'0 0.0
2017-Jan-10 22:33N 46°45' W 091°58'0 0.0
2017-Jan-10 21:33N 46°45' W 091°58'0 0.1
2017-Jan-10 20:33N 46°45' W 091°58'0 0.0
2017-Jan-10 19:33N 46°45' W 091°58'0 0.0
2017-Jan-10 18:33N 46°45' W 091°58'0 0.1
2017-Jan-10 17:33N 46°45' W 091°58'0 0.1
2017-Jan-10 16:33N 46°45' W 091°58'0 0.2
2017-Jan-10 15:32N 46°45' W 091°58'0 0.2
2017-Jan-10 14:33N 46°45' W 091°58'0 0.0
2017-Jan-10 13:33N 46°45' W 091°58'0 0.1
2017-Jan-10 12:33N 46°45' W 091°58'0 0.0
2017-Jan-10 11:33N 46°45' W 091°58'0 0.1
2017-Jan-10 10:33N 46°45' W 091°58'0 0.1
2017-Jan-10 09:33N 46°45' W 091°58'0 0.1
2017-Jan-10 08:33N 46°45' W 091°58'0 0.0
2017-Jan-10 07:33N 46°45' W 091°58'0 0.0
2017-Jan-10 06:33N 46°45' W 091°58'0 0.0
2017-Jan-10 05:33N 46°45' W 091°58'0 0.0
2017-Jan-10 04:33N 46°45' W 091°58'0 0.1
2017-Jan-10 03:33N 46°45' W 091°58'0 0.0
2017-Jan-10 02:33N 46°45' W 091°58'0 0.0
2017-Jan-10 01:33N 46°45' W 091°58'0 0.0
2017-Jan-10 00:33N 46°45' W 091°58'0 0.0
2017-Jan-09 23:33N 46°45' W 091°58'0 0.0
2017-Jan-09 22:33N 46°45' W 091°58'0 0.0
2017-Jan-09 21:33N 46°45' W 091°58'0 0.0
2017-Jan-09 20:33N 46°45' W 091°58'0 0.0
2017-Jan-09 19:32N 46°45' W 091°58'0 0.0
2017-Jan-09 18:33N 46°45' W 091°58'0 0.2
2017-Jan-09 17:33N 46°45' W 091°58'0 0.2
2017-Jan-09 16:33N 46°45' W 091°58'0 0.2
2017-Jan-09 15:33N 46°45' W 091°58'0 0.1
2017-Jan-09 14:33N 46°45' W 091°58'0 0.0
2017-Jan-09 13:33N 46°45' W 091°58'0 0.1
2017-Jan-09 12:33N 46°45' W 091°58'0 0.1
2017-Jan-09 11:33N 46°45' W 091°58'0 0.1
2017-Jan-09 10:33N 46°45' W 091°58'0 0.1
2017-Jan-09 09:33N 46°45' W 091°58'0 0.0
2017-Jan-09 08:33N 46°45' W 091°58'0 0.0
2017-Jan-09 07:33N 46°45' W 091°58'0 0.1
2017-Jan-09 06:33N 46°45' W 091°58'7 6.8
2017-Jan-09 05:33N 46°49' W 091°50'10 9.6
2017-Jan-09 04:33N 46°53' W 091°37'99 9.4
2017-Jan-08 18:00N 47°48' W 089°36'12911.8 250 / 141027.010.8 -8.8
2017-Jan-08 07:00N 48°24' W 086°30'104 8.0 310 / 151027.4 0.5 -16.1
2017-Jan-07 18:00N 47°00' W 085°00'112 8.6 240 / 231017.2 0.5 -8.3
2017-Jan-07 05:00N 45°30' W 083°24'   280 / 171020.610.8 -8.3

Dump ship's entire track history